createdAt,value
2018-05-13T00:00:01.431Z,43.20
2018-05-13T00:01:00.292Z,44.10
2018-05-13T00:02:01.105Z,41.50
2018-05-13T00:03:01.438Z,44.00
2018-05-13T00:04:02.156Z,44.70
2018-05-13T00:05:00.771Z,45.10
2018-05-13T00:06:00.770Z,42.90
2018-05-13T00:07:01.054Z,40.80
2018-05-13T00:08:01.386Z,42.90
2018-05-13T00:09:00.245Z,41.70
2018-05-13T00:10:00.958Z,42.10
2018-05-13T00:11:21.541Z,43.80
2018-05-13T00:12:21.680Z,44.70
2018-05-13T00:13:21.432Z,42.30
2018-05-13T00:14:21.543Z,43.10
2018-05-13T00:15:22.213Z,45.00
2018-05-13T00:16:21.740Z,41.70
2018-05-13T00:17:21.945Z,40.80
2018-05-13T00:18:22.096Z,41.40
2018-05-13T00:19:22.265Z,44.90
2018-05-13T00:20:22.187Z,43.00
2018-05-13T00:21:22.018Z,43.30
2018-05-13T00:22:21.747Z,42.10
2018-05-13T00:23:21.586Z,41.00
2018-05-13T00:24:21.697Z,40.70
2018-05-13T00:25:21.783Z,39.80
2018-05-13T00:26:21.511Z,44.60
2018-05-13T00:27:21.723Z,43.90
2018-05-13T00:28:21.922Z,42.20
2018-05-13T00:29:21.870Z,37.30
2018-05-13T00:30:21.695Z,42.20
2018-05-13T00:31:21.700Z,40.60
2018-05-13T00:32:21.299Z,42.80
2018-05-13T00:33:22.334Z,44.70
2018-05-13T00:34:43.333Z,42.50
2018-05-13T00:35:43.084Z,42.50
2018-05-13T00:36:43.648Z,41.80
2018-05-13T00:37:43.647Z,40.60
2018-05-13T00:38:43.303Z,42.00
2018-05-13T00:39:43.433Z,41.30
2018-05-13T00:40:43.609Z,40.00
2018-05-13T00:41:43.229Z,42.70
2018-05-13T00:42:44.303Z,40.10
2018-05-13T00:43:43.664Z,43.40
2018-05-13T00:44:43.667Z,44.10
2018-05-13T00:45:43.663Z,41.00
2018-05-13T00:46:43.744Z,44.40
2018-05-13T00:48:04.527Z,42.20
2018-05-13T00:49:04.329Z,46.40
2018-05-13T00:50:25.256Z,46.60
2018-05-13T00:51:25.045Z,44.80
2018-05-13T00:52:26.115Z,44.80
2018-05-13T00:53:26.166Z,43.10
2018-05-13T00:54:46.197Z,45.70
2018-05-13T00:55:46.993Z,48.70
2018-05-13T00:56:47.132Z,42.10
2018-05-13T00:57:46.892Z,46.60
2018-05-13T00:58:46.974Z,47.50
2018-05-13T01:00:07.615Z,41.00
2018-05-13T01:01:08.425Z,42.30
2018-05-13T01:02:49.807Z,45.40
2018-05-13T01:03:50.647Z,44.60
2018-05-13T01:04:50.770Z,43.10
2018-05-13T01:05:50.909Z,43.80
2018-05-13T01:06:50.667Z,42.70
2018-05-13T01:07:50.247Z,42.10
2018-05-13T01:08:50.007Z,44.10
2018-05-13T01:09:49.729Z,48.20
2018-05-13T01:11:11.601Z,45.40
2018-05-13T01:12:11.385Z,46.90
2018-05-13T01:13:12.268Z,47.30
2018-05-13T01:14:12.268Z,43.50
2018-05-13T01:15:12.118Z,44.60
2018-05-13T01:16:11.726Z,45.00
2018-05-13T01:17:11.497Z,45.10
2018-05-13T01:18:11.800Z,47.70
2018-05-13T01:19:11.940Z,43.90
2018-05-13T01:20:11.917Z,40.70
2018-05-13T01:21:15.436Z,49.20
2018-05-13T01:22:14.493Z,50.40
2018-05-13T01:23:12.479Z,46.30
2018-05-13T01:24:33.503Z,48.00
2018-05-13T01:25:33.502Z,48.80
2018-05-13T01:26:33.125Z,46.60
2018-05-13T01:27:33.121Z,47.50
2018-05-13T01:28:33.257Z,48.30
2018-05-13T01:29:33.082Z,49.10
2018-05-13T01:30:33.277Z,50.80
2018-05-13T01:31:33.023Z,46.30
2018-05-13T01:32:32.622Z,47.80
2018-05-13T01:33:33.692Z,44.50
2018-05-13T01:34:54.425Z,47.30
2018-05-13T01:36:14.833Z,46.80
2018-05-13T01:37:15.525Z,47.60
2018-05-13T01:38:35.653Z,46.90
2018-05-13T01:39:36.801Z,47.40
2018-05-13T01:40:36.970Z,55.50
2018-05-13T01:41:36.095Z,47.20
2018-05-13T01:43:18.092Z,50.30
2018-05-13T01:44:17.821Z,47.20
2018-05-13T01:45:18.588Z,50.70
2018-05-13T01:46:19.123Z,48.50
2018-05-13T01:47:18.109Z,51.50
2018-05-13T01:48:17.745Z,49.30
2018-05-13T01:49:17.994Z,48.40
2018-05-13T01:50:18.060Z,53.10
2018-05-13T01:51:17.823Z,47.80
2018-05-13T01:52:18.057Z,48.30
2018-05-13T01:53:18.329Z,53.00
2018-05-13T01:54:18.413Z,49.40
2018-05-13T01:55:19.215Z,49.20
2018-05-13T01:56:38.445Z,51.60
2018-05-13T01:58:00.174Z,54.60
2018-05-13T01:59:01.122Z,50.80
2018-05-13T02:00:01.120Z,50.00
2018-05-13T02:00:59.830Z,51.40
2018-05-13T02:02:00.890Z,52.50
2018-05-13T02:03:00.634Z,50.50
2018-05-13T02:04:00.220Z,48.90
2018-05-13T02:05:20.559Z,49.70
2018-05-13T02:06:21.101Z,50.40
2018-05-13T02:07:20.580Z,53.10
2018-05-13T02:08:20.623Z,47.60
2018-05-13T02:09:20.354Z,48.30
2018-05-13T02:10:20.957Z,53.70
2018-05-13T02:11:21.144Z,51.30
2018-05-13T02:12:21.223Z,56.30
2018-05-13T02:13:20.732Z,54.90
2018-05-13T02:14:20.883Z,50.90
2018-05-13T02:15:21.564Z,49.70
2018-05-13T02:16:20.232Z,49.90
2018-05-13T02:17:20.902Z,53.80
2018-05-13T02:18:20.428Z,49.60
2018-05-13T02:19:21.425Z,49.60
2018-05-13T02:20:41.361Z,48.30
2018-05-13T02:21:42.031Z,53.00
2018-05-13T02:22:41.675Z,52.60
2018-05-13T02:23:42.226Z,53.50
2018-05-13T02:24:42.282Z,52.80
2018-05-13T02:26:02.384Z,51.40
2018-05-13T02:27:23.482Z,53.70
2018-05-13T02:28:24.396Z,57.10
2018-05-13T02:29:24.226Z,51.20
2018-05-13T02:30:23.879Z,53.30
2018-05-13T02:31:24.832Z,52.60
2018-05-13T02:32:23.841Z,52.40
2018-05-13T02:33:24.419Z,56.40
2018-05-13T02:34:24.460Z,55.50
2018-05-13T02:35:24.384Z,54.70
2018-05-13T02:36:24.104Z,55.10
2018-05-13T02:37:24.038Z,56.60
2018-05-13T02:38:24.093Z,55.00
2018-05-13T02:39:23.715Z,49.50
2018-05-13T02:40:24.653Z,52.50
2018-05-13T02:41:24.122Z,55.30
2018-05-13T02:42:44.482Z,50.80
2018-05-13T02:43:45.480Z,53.10
2018-05-13T02:44:45.123Z,55.50
2018-05-13T02:45:45.169Z,57.10
2018-05-13T02:46:45.188Z,55.10
2018-05-13T02:47:45.179Z,54.60
2018-05-13T02:48:44.788Z,56.50
2018-05-13T02:49:44.891Z,59.00
2018-05-13T02:50:44.936Z,56.30
2018-05-13T02:51:44.512Z,55.30
2018-05-13T02:52:45.117Z,62.00
2018-05-13T02:53:45.243Z,56.10
2018-05-13T02:54:44.890Z,58.50
2018-05-13T02:55:44.540Z,55.60
2018-05-13T02:56:45.495Z,55.50
2018-05-13T02:57:45.049Z,55.80
2018-05-13T02:58:44.795Z,56.30
2018-05-13T02:59:45.337Z,55.60
2018-05-13T03:00:45.261Z,55.40
2018-05-13T03:01:45.147Z,57.30
2018-05-13T03:02:44.679Z,57.20
2018-05-13T03:03:45.222Z,55.30
2018-05-13T03:04:45.123Z,57.30
2018-05-13T03:06:05.748Z,58.00
2018-05-13T03:07:06.670Z,60.70
2018-05-13T03:08:27.181Z,61.70
2018-05-13T03:09:28.130Z,56.60
2018-05-13T03:10:27.623Z,61.00
2018-05-13T03:11:27.352Z,62.40
2018-05-13T03:12:27.043Z,55.30
2018-05-13T03:13:27.699Z,56.50
2018-05-13T03:14:27.928Z,54.20
2018-05-13T03:15:28.029Z,60.30
2018-05-13T03:16:27.696Z,60.20
2018-05-13T03:17:27.709Z,60.20
2018-05-13T03:18:27.460Z,60.10
2018-05-13T03:19:28.588Z,57.90
2018-05-13T03:20:27.431Z,59.70
2018-05-13T03:21:27.069Z,57.60
2018-05-13T03:22:27.190Z,58.10
2018-05-13T03:23:27.803Z,62.50
2018-05-13T03:24:27.567Z,57.90
2018-05-13T03:25:48.315Z,55.50
2018-05-13T03:26:48.912Z,58.60
2018-05-13T03:27:49.029Z,59.70
2018-05-13T03:28:49.047Z,62.20
2018-05-13T03:29:49.273Z,58.80
2018-05-13T03:30:47.983Z,64.20
2018-05-13T03:31:48.682Z,59.80
2018-05-13T03:32:48.399Z,61.00
2018-05-13T03:33:48.058Z,61.90
2018-05-13T03:34:49.172Z,58.10
2018-05-13T03:35:49.221Z,59.50
2018-05-13T03:36:48.833Z,63.00
2018-05-13T03:37:48.780Z,61.60
2018-05-13T03:38:48.430Z,58.20
2018-05-13T03:39:48.632Z,62.60
2018-05-13T03:40:48.399Z,58.90
2018-05-13T03:41:48.284Z,60.40
2018-05-13T03:42:48.397Z,65.20
2018-05-13T03:44:09.911Z,56.60
2018-05-13T03:45:09.556Z,55.20
2018-05-13T03:46:10.206Z,58.70
2018-05-13T03:47:31.078Z,65.20
2018-05-13T03:48:30.982Z,59.20
2018-05-13T03:49:31.117Z,56.80
2018-05-13T03:50:31.005Z,60.00
2018-05-13T03:51:30.976Z,58.90
2018-05-13T03:52:30.772Z,63.00
2018-05-13T03:53:31.418Z,59.50
2018-05-13T03:54:31.139Z,64.60
2018-05-13T03:55:52.218Z,66.50
2018-05-13T03:57:14.630Z,60.20
2018-05-13T03:58:14.374Z,58.90
2018-05-13T03:59:15.620Z,60.50
2018-05-13T04:00:15.298Z,59.20
2018-05-13T04:01:14.872Z,57.30
2018-05-13T04:02:15.052Z,61.30
2018-05-13T04:03:15.334Z,59.70
2018-05-13T04:04:36.644Z,59.30
2018-05-13T04:05:37.925Z,60.00
2018-05-13T04:06:37.036Z,54.80
2018-05-13T04:07:36.838Z,65.60
2018-05-13T04:08:37.788Z,59.90
2018-05-13T04:09:57.882Z,62.60
2018-05-13T04:10:58.200Z,56.30
2018-05-13T04:11:58.039Z,57.20
2018-05-13T04:12:58.118Z,59.50
2018-05-13T04:13:57.844Z,54.90
2018-05-13T04:14:57.694Z,64.00
2018-05-13T04:15:58.748Z,60.30
2018-05-13T04:17:19.352Z,59.80
2018-05-13T04:19:00.639Z,57.00
2018-05-13T04:20:01.750Z,52.00
2018-05-13T04:21:01.846Z,52.00
2018-05-13T04:22:00.972Z,57.20
2018-05-13T04:23:01.125Z,51.60
2018-05-13T04:24:01.362Z,56.90
2018-05-13T04:25:01.215Z,54.40
2018-05-13T04:26:01.263Z,53.10
2018-05-13T04:27:01.487Z,53.60
2018-05-13T04:28:01.317Z,52.50
2018-05-13T04:29:01.452Z,55.20
2018-05-13T04:30:01.302Z,52.30
2018-05-13T04:31:01.081Z,54.30
2018-05-13T04:32:01.149Z,53.30
2018-05-13T04:33:01.393Z,49.10
2018-05-13T04:34:01.303Z,56.70
2018-05-13T04:35:01.624Z,51.70
2018-05-13T04:36:43.450Z,52.40
2018-05-13T04:38:04.120Z,50.00
2018-05-13T04:39:04.005Z,51.80
2018-05-13T04:40:04.022Z,47.80
2018-05-13T04:41:04.347Z,46.20
2018-05-13T04:42:04.544Z,47.50
2018-05-13T04:43:04.570Z,50.90
2018-05-13T04:44:04.673Z,45.80
2018-05-13T04:45:04.860Z,49.30
2018-05-13T04:46:04.650Z,46.10
2018-05-13T04:47:05.251Z,47.40
2018-05-13T04:48:04.091Z,47.40
2018-05-13T04:49:03.770Z,47.80
2018-05-13T04:50:04.803Z,48.50
2018-05-13T04:51:04.728Z,44.60
2018-05-13T04:52:04.922Z,49.10
2018-05-13T04:53:04.705Z,48.10
2018-05-13T04:54:04.375Z,50.10
2018-05-13T04:55:04.729Z,44.90
2018-05-13T04:56:04.516Z,44.20
2018-05-13T04:57:04.199Z,45.30
2018-05-13T04:58:24.559Z,48.00
2018-05-13T04:59:25.601Z,50.20
2018-05-13T05:00:46.516Z,44.70
2018-05-13T05:01:47.731Z,49.00
2018-05-13T05:02:47.433Z,43.20
2018-05-13T05:03:48.494Z,44.20
2018-05-13T05:04:47.473Z,45.50
2018-05-13T05:05:48.878Z,42.90
2018-05-13T05:07:28.818Z,43.30
2018-05-13T05:08:28.944Z,44.90
2018-05-13T05:09:49.655Z,41.50
2018-05-13T05:10:50.397Z,42.70
2018-05-13T05:11:50.151Z,43.10
2018-05-13T05:12:50.997Z,42.40
2018-05-13T05:13:50.376Z,42.80
2018-05-13T05:14:50.203Z,44.20
2018-05-13T05:15:50.379Z,41.70
2018-05-13T05:16:50.547Z,44.20
2018-05-13T05:18:10.210Z,40.30
2018-05-13T05:19:11.233Z,42.20
2018-05-13T05:20:11.315Z,48.90
2018-05-13T05:21:12.279Z,45.30
2018-05-13T05:22:31.483Z,41.00
2018-05-13T05:23:32.265Z,41.20
2018-05-13T05:24:32.170Z,39.90
2018-05-13T05:25:32.081Z,41.70
2018-05-13T05:26:32.258Z,36.50
2018-05-13T05:27:53.418Z,39.50
2018-05-13T05:28:53.352Z,36.30
2018-05-13T05:30:13.867Z,34.90
2018-05-13T05:31:15.037Z,36.30
2018-05-13T05:32:13.962Z,37.40
2018-05-13T05:33:14.721Z,36.10
2018-05-13T05:34:14.460Z,36.70
2018-05-13T05:35:14.578Z,36.70
2018-05-13T05:36:14.778Z,36.70
2018-05-13T05:37:14.631Z,37.40
2018-05-13T05:38:34.874Z,36.40
2018-05-13T05:39:35.744Z,34.10
2018-05-13T05:40:36.114Z,34.90
2018-05-13T05:41:55.700Z,36.30
2018-05-13T05:42:56.997Z,37.70
2018-05-13T05:43:55.887Z,39.00
2018-05-13T05:44:56.076Z,34.10
2018-05-13T05:45:56.383Z,38.40
2018-05-13T05:46:56.605Z,36.40
2018-05-13T05:47:56.382Z,33.90
2018-05-13T05:48:56.204Z,32.00
2018-05-13T05:49:55.974Z,31.10
2018-05-13T05:50:56.333Z,31.50
2018-05-13T05:51:56.452Z,34.60
2018-05-13T05:52:56.244Z,37.40
2018-05-13T05:53:56.438Z,33.00
2018-05-13T05:54:56.672Z,37.20
2018-05-13T05:55:57.176Z,35.20
2018-05-13T05:57:16.800Z,33.50
2018-05-13T05:58:17.946Z,36.00
2018-05-13T05:59:16.928Z,34.50
2018-05-13T06:00:18.068Z,33.40
2018-05-13T06:01:17.286Z,34.30
2018-05-13T06:02:17.824Z,34.00
2018-05-13T06:03:18.232Z,34.40
2018-05-13T06:04:17.499Z,37.40
2018-05-13T06:05:17.523Z,30.40
2018-05-13T06:06:17.626Z,31.90
2018-05-13T06:07:18.419Z,32.60
2018-05-13T06:08:17.283Z,32.00
2018-05-13T06:09:17.071Z,30.30
2018-05-13T06:10:17.375Z,33.30
2018-05-13T06:11:37.984Z,29.00
2018-05-13T06:12:39.409Z,32.30
2018-05-13T06:13:38.530Z,31.20
2018-05-13T06:14:38.422Z,29.90
2018-05-13T06:15:38.052Z,30.50
2018-05-13T06:16:38.980Z,32.10
2018-05-13T06:17:39.146Z,29.20
2018-05-13T06:18:38.936Z,29.70
2018-05-13T06:19:39.201Z,28.80
2018-05-13T06:20:38.861Z,28.90
2018-05-13T06:21:39.116Z,30.60
2018-05-13T06:22:59.972Z,29.40
2018-05-13T06:23:59.817Z,30.40
2018-05-13T06:25:00.849Z,32.80
2018-05-13T06:25:59.621Z,30.80
2018-05-13T06:27:00.502Z,31.50
2018-05-13T06:28:21.638Z,28.60
2018-05-13T06:29:22.535Z,29.00
2018-05-13T06:30:22.553Z,28.40
2018-05-13T06:31:22.275Z,31.90
2018-05-13T06:32:22.552Z,32.90
2018-05-13T06:33:22.300Z,31.10
2018-05-13T06:34:22.787Z,28.90
2018-05-13T06:35:22.077Z,30.10
2018-05-13T06:36:22.273Z,31.20
2018-05-13T06:37:43.443Z,31.60
2018-05-13T06:38:43.343Z,30.70
2018-05-13T06:39:44.571Z,29.20
2018-05-13T06:40:43.764Z,30.30
2018-05-13T06:41:43.699Z,30.00
2018-05-13T06:42:43.845Z,33.20
2018-05-13T06:43:44.053Z,32.20
2018-05-13T06:44:43.975Z,28.70
2018-05-13T06:45:43.866Z,33.90
2018-05-13T06:47:05.118Z,30.30
2018-05-13T06:48:05.374Z,30.80
2018-05-13T06:49:05.911Z,29.80
2018-05-13T06:50:04.828Z,29.10
2018-05-13T06:51:06.048Z,31.20
2018-05-13T06:52:05.384Z,33.10
2018-05-13T06:53:05.213Z,31.20
2018-05-13T06:54:25.585Z,28.60
2018-05-13T06:55:47.707Z,31.50
2018-05-13T06:57:09.030Z,32.00
2018-05-13T06:58:08.999Z,31.10
2018-05-13T06:59:08.808Z,30.10
2018-05-13T07:00:09.588Z,31.60
2018-05-13T07:01:30.285Z,31.70
2018-05-13T07:02:30.107Z,30.70
2018-05-13T07:03:50.832Z,29.00
2018-05-13T07:04:51.648Z,29.80
2018-05-13T07:05:51.822Z,30.90
2018-05-13T07:06:51.570Z,31.00
2018-05-13T07:07:51.774Z,30.50
2018-05-13T07:09:12.650Z,28.30
2018-05-13T07:10:34.936Z,29.00
2018-05-13T07:11:35.105Z,28.40
2018-05-13T07:12:35.335Z,29.50
2018-05-13T07:13:35.484Z,27.90
2018-05-13T07:14:35.351Z,28.40
2018-05-13T07:15:35.256Z,28.70
2018-05-13T07:16:35.027Z,30.80
2018-05-13T07:17:35.159Z,29.50
2018-05-13T07:18:35.063Z,29.80
2018-05-13T07:19:34.767Z,26.20
2018-05-13T07:20:35.878Z,29.90
2018-05-13T07:21:34.644Z,27.90
2018-05-13T07:22:35.482Z,27.90
2018-05-13T07:23:35.424Z,26.00
2018-05-13T07:24:35.760Z,26.50
2018-05-13T07:25:34.939Z,29.10
2018-05-13T07:26:35.203Z,26.60
2018-05-13T07:27:35.214Z,28.20
2018-05-13T07:28:36.066Z,30.30
2018-05-13T07:30:17.257Z,27.30
2018-05-13T07:31:17.771Z,26.70
2018-05-13T07:32:17.040Z,26.10
2018-05-13T07:33:16.964Z,26.00
2018-05-13T07:34:16.959Z,27.00
2018-05-13T07:35:17.346Z,26.60
2018-05-13T07:36:18.218Z,26.30
2018-05-13T07:37:38.457Z,26.90
2018-05-13T07:38:38.691Z,26.20
2018-05-13T07:39:38.628Z,26.70
2018-05-13T07:40:38.802Z,25.90
2018-05-13T07:41:38.753Z,28.40
2018-05-13T07:42:59.513Z,26.10
2018-05-13T07:43:59.441Z,26.10
2018-05-13T07:45:00.373Z,25.40
2018-05-13T07:46:00.215Z,27.10
2018-05-13T07:47:00.037Z,26.70
2018-05-13T07:48:09.200Z,25.90
2018-05-13T07:49:00.586Z,26.50
2018-05-13T07:49:59.973Z,26.00
2018-05-13T07:50:59.846Z,25.30
2018-05-13T07:51:59.751Z,25.60
2018-05-13T07:52:59.754Z,25.50
2018-05-13T07:53:59.780Z,25.40
2018-05-13T07:54:59.983Z,25.40
2018-05-13T07:56:01.208Z,27.40
2018-05-13T07:57:00.267Z,27.40
2018-05-13T07:58:22.218Z,26.10
2018-05-13T07:59:45.306Z,24.40
2018-05-13T08:00:43.451Z,25.80
2018-05-13T08:01:42.406Z,23.60
2018-05-13T08:02:42.818Z,25.80
2018-05-13T08:03:43.106Z,28.30
2018-05-13T08:04:42.981Z,26.10
2018-05-13T08:05:43.716Z,25.40
2018-05-13T08:06:42.652Z,24.40
2018-05-13T08:08:28.105Z,25.90
2018-05-13T08:09:52.082Z,25.50
2018-05-13T08:10:52.847Z,23.60
2018-05-13T08:11:53.705Z,24.50
2018-05-13T08:12:52.816Z,24.60
2018-05-13T08:13:51.801Z,23.80
2018-05-13T08:14:53.168Z,24.60
2018-05-13T08:15:52.493Z,25.00
2018-05-13T08:16:53.463Z,25.70
2018-05-13T08:17:52.358Z,24.20
2018-05-13T08:18:52.400Z,23.30
2018-05-13T08:19:52.537Z,23.80
2018-05-13T08:20:53.652Z,24.20
2018-05-13T08:21:52.730Z,24.20
2018-05-13T08:22:53.408Z,23.80
2018-05-13T08:23:52.887Z,23.60
2018-05-13T08:24:52.722Z,22.70
2018-05-13T08:25:52.586Z,23.00
2018-05-13T08:26:52.524Z,22.40
2018-05-13T08:27:52.457Z,22.40
2018-05-13T08:28:52.645Z,22.60
2018-05-13T08:29:53.008Z,24.30
2018-05-13T08:30:52.267Z,24.30
2018-05-13T08:33:15.680Z,21.90
2018-05-13T08:34:15.934Z,24.80
2018-05-13T08:35:38.332Z,22.70
2018-05-13T08:36:40.039Z,21.70
2018-05-13T08:37:39.495Z,22.20
2018-05-13T08:38:38.426Z,20.80
2018-05-13T08:39:38.632Z,20.90
2018-05-13T08:40:38.864Z,23.10
2018-05-13T08:41:38.816Z,22.10
2018-05-13T08:42:39.316Z,22.70
2018-05-13T08:43:38.685Z,24.00
2018-05-13T08:44:38.584Z,23.10
2018-05-13T08:45:38.536Z,23.20
2018-05-13T08:46:39.776Z,23.80
2018-05-13T08:47:38.875Z,22.60
2018-05-13T08:48:39.229Z,22.80
2018-05-13T08:49:38.263Z,22.70
2018-05-13T08:50:38.635Z,23.00
2018-05-13T08:51:38.419Z,23.00
2018-05-13T08:52:38.456Z,23.50
2018-05-13T08:53:38.917Z,23.00
2018-05-13T08:54:38.794Z,21.80
2018-05-13T08:55:39.237Z,22.30
2018-05-13T08:56:38.876Z,22.80
2018-05-13T08:57:38.867Z,22.20
2018-05-13T08:58:39.289Z,22.30
2018-05-13T09:00:01.092Z,22.40
2018-05-13T09:01:01.085Z,24.60
2018-05-13T09:02:00.190Z,22.60
2018-05-13T09:03:00.237Z,21.80
2018-05-13T09:04:01.553Z,23.30
2018-05-13T09:05:00.762Z,23.30
2018-05-13T09:07:04.324Z,21.00
2018-05-13T09:08:04.334Z,21.40
2018-05-13T09:09:04.368Z,21.90
2018-05-13T09:10:04.815Z,21.70
2018-05-13T09:11:05.319Z,21.80
2018-05-13T09:12:24.720Z,21.90
2018-05-13T09:13:25.522Z,22.70
2018-05-13T09:14:26.954Z,22.40
2018-05-13T09:15:25.104Z,22.80
2018-05-13T09:16:25.043Z,22.90
2018-05-13T09:17:25.387Z,22.70
2018-05-13T09:18:25.718Z,22.00
2018-05-13T09:19:26.923Z,21.70
2018-05-13T09:20:25.376Z,22.20
2018-05-13T09:21:25.480Z,20.50
2018-05-13T09:22:25.872Z,22.30
2018-05-13T09:23:24.959Z,23.00
2018-05-13T09:24:25.246Z,23.30
2018-05-13T09:25:25.244Z,23.40
2018-05-13T09:26:25.415Z,23.80
2018-05-13T09:27:25.897Z,23.20
2018-05-13T09:28:24.755Z,23.00
2018-05-13T09:29:26.699Z,23.70
2018-05-13T09:30:24.917Z,0.00
2018-05-13T09:31:25.942Z,21.80
2018-05-13T09:32:25.018Z,20.30
2018-05-13T09:33:25.442Z,22.40
2018-05-13T09:34:26.054Z,22.20
2018-05-13T09:35:25.141Z,21.70
2018-05-13T09:36:25.059Z,24.00
2018-05-13T09:37:25.655Z,22.10
2018-05-13T09:38:24.791Z,21.80
2018-05-13T09:39:24.948Z,23.10
2018-05-13T09:40:25.131Z,21.80
2018-05-13T09:41:25.220Z,21.40
2018-05-13T09:42:25.783Z,23.60
2018-05-13T09:43:25.209Z,22.80
2018-05-13T09:44:25.712Z,21.70
2018-05-13T09:45:25.280Z,21.50
2018-05-13T09:46:46.773Z,19.80
2018-05-13T09:47:48.195Z,21.20
2018-05-13T09:48:47.246Z,21.60
2018-05-13T09:49:47.168Z,23.70
2018-05-13T09:51:10.494Z,19.50
2018-05-13T09:52:31.086Z,20.90
2018-05-13T09:53:31.209Z,21.10
2018-05-13T09:54:31.368Z,20.40
2018-05-13T09:55:31.413Z,19.00
2018-05-13T09:56:32.149Z,19.70
2018-05-13T09:57:31.599Z,19.00
2018-05-13T09:58:31.642Z,18.60
2018-05-13T09:59:31.662Z,17.90
2018-05-13T10:00:54.739Z,17.70
2018-05-13T10:01:53.764Z,18.80
2018-05-13T10:02:54.430Z,19.10
2018-05-13T10:03:53.438Z,18.60
2018-05-13T10:04:53.412Z,21.40
2018-05-13T10:05:53.829Z,18.60
2018-05-13T10:07:15.025Z,20.10
2018-05-13T10:08:15.040Z,19.00
2018-05-13T10:09:15.449Z,19.20
2018-05-13T10:10:15.696Z,17.10
2018-05-13T10:11:16.077Z,17.90
2018-05-13T10:12:15.717Z,18.40
2018-05-13T10:13:14.987Z,19.30
2018-05-13T10:14:15.020Z,19.10
2018-05-13T10:15:15.155Z,17.00
2018-05-13T10:16:15.479Z,18.20
2018-05-13T10:17:37.092Z,18.00
2018-05-13T10:18:58.436Z,17.30
2018-05-13T10:19:58.694Z,17.70
2018-05-13T10:20:58.792Z,16.70
2018-05-13T10:21:59.298Z,16.80
2018-05-13T10:22:58.439Z,16.50
2018-05-13T10:23:58.698Z,17.40
2018-05-13T10:24:58.863Z,16.40
2018-05-13T10:25:59.132Z,15.80
2018-05-13T10:26:58.073Z,15.80
2018-05-13T10:27:58.555Z,15.60
2018-05-13T10:28:59.035Z,15.30
2018-05-13T10:29:59.801Z,13.60
2018-05-13T10:30:59.341Z,14.10
2018-05-13T10:31:58.896Z,14.10
2018-05-13T10:32:58.974Z,13.20
2018-05-13T10:33:58.169Z,12.00
2018-05-13T10:34:58.307Z,12.10
2018-05-13T10:35:58.392Z,12.80
2018-05-13T10:37:19.332Z,12.70
2018-05-13T10:38:19.442Z,12.10
2018-05-13T10:39:20.370Z,13.40
2018-05-13T10:40:20.530Z,13.70
2018-05-13T10:41:19.921Z,13.00
2018-05-13T10:42:41.097Z,13.80
2018-05-13T10:44:02.621Z,14.70
2018-05-13T10:45:03.013Z,14.50
2018-05-13T10:46:03.294Z,13.00
2018-05-13T10:47:02.358Z,14.10
2018-05-13T10:48:02.987Z,13.50
2018-05-13T10:49:24.101Z,15.40
2018-05-13T10:50:24.168Z,15.00
2018-05-13T10:51:24.277Z,13.40
2018-05-13T10:52:46.016Z,13.90
2018-05-13T10:53:46.375Z,12.60
2018-05-13T10:54:47.016Z,13.90
2018-05-13T10:55:46.008Z,15.10
2018-05-13T10:56:45.912Z,14.70
2018-05-13T10:57:46.023Z,13.50
2018-05-13T10:58:46.461Z,13.10
2018-05-13T10:59:47.185Z,13.80
2018-05-13T11:00:46.769Z,13.90
2018-05-13T11:01:45.725Z,13.50
2018-05-13T11:02:46.158Z,13.00
2018-05-13T11:03:46.105Z,13.00
2018-05-13T11:04:46.408Z,13.70
2018-05-13T11:05:46.575Z,12.10
2018-05-13T11:06:45.828Z,12.20
2018-05-13T11:07:47.048Z,12.50
2018-05-13T11:09:07.133Z,11.30
2018-05-13T11:10:07.582Z,12.10
2018-05-13T11:11:28.308Z,11.60
2018-05-13T11:12:30.117Z,11.60
2018-05-13T11:13:29.212Z,11.90
2018-05-13T11:14:29.353Z,12.60
2018-05-13T11:15:28.971Z,11.00
2018-05-13T11:16:29.114Z,12.90
2018-05-13T11:17:29.828Z,11.80
2018-05-13T11:18:29.609Z,11.30
2018-05-13T11:19:29.237Z,10.90
2018-05-13T11:20:30.334Z,11.80
2018-05-13T11:21:28.892Z,12.00
2018-05-13T11:22:29.359Z,11.50
2018-05-13T11:23:28.612Z,11.20
2018-05-13T11:24:29.302Z,11.90
2018-05-13T11:25:29.635Z,12.00
2018-05-13T11:26:29.857Z,13.00
2018-05-13T11:27:28.849Z,12.40
2018-05-13T11:28:29.292Z,12.20
2018-05-13T11:29:30.796Z,11.00
2018-05-13T11:30:29.588Z,12.40
2018-05-13T11:31:29.267Z,13.60
2018-05-13T11:32:28.438Z,13.20
2018-05-13T11:33:28.883Z,12.00
2018-05-13T11:34:29.331Z,12.20
2018-05-13T11:35:28.860Z,13.40
2018-05-13T11:36:29.085Z,11.70
2018-05-13T11:37:29.219Z,11.00
2018-05-13T11:39:42.074Z,12.40
2018-05-13T11:40:42.434Z,12.20
2018-05-13T11:41:42.475Z,14.20
2018-05-13T11:42:42.553Z,14.20
2018-05-13T11:44:43.236Z,12.70
2018-05-13T11:45:41.509Z,13.00
2018-05-13T11:46:41.595Z,12.00
2018-05-13T11:47:41.984Z,12.90
2018-05-13T11:48:41.868Z,12.50
2018-05-13T11:49:41.741Z,12.20
2018-05-13T11:51:03.446Z,13.40
2018-05-13T11:52:03.541Z,12.20
2018-05-13T11:53:25.962Z,11.60
2018-05-13T11:54:25.004Z,11.80
2018-05-13T11:55:46.054Z,11.50
2018-05-13T11:56:45.922Z,11.10
2018-05-13T11:57:46.209Z,12.70
2018-05-13T11:59:07.750Z,12.90
2018-05-13T12:00:28.820Z,12.30
2018-05-13T12:02:12.205Z,15.00
2018-05-13T12:03:11.331Z,13.20
2018-05-13T12:04:11.237Z,11.50
2018-05-13T12:05:11.194Z,11.50
2018-05-13T12:06:11.818Z,11.80
2018-05-13T12:07:33.272Z,13.10
2018-05-13T12:08:33.074Z,12.30
2018-05-13T12:09:33.100Z,14.10
2018-05-13T12:10:33.391Z,12.00
2018-05-13T12:11:33.577Z,12.00
2018-05-13T12:12:54.611Z,10.40
2018-05-13T12:13:55.469Z,12.20
2018-05-13T12:14:57.099Z,11.80
2018-05-13T12:15:54.934Z,11.90
2018-05-13T12:16:54.964Z,11.50
2018-05-13T12:17:54.846Z,10.90
2018-05-13T12:18:55.716Z,10.70
2018-05-13T12:20:17.523Z,10.20
2018-05-13T12:21:17.933Z,11.40
2018-05-13T12:22:17.922Z,10.80
2018-05-13T12:23:17.877Z,10.90
2018-05-13T12:24:18.189Z,11.00
2018-05-13T12:25:18.417Z,10.00
2018-05-13T12:26:58.962Z,11.80
2018-05-13T12:28:00.999Z,10.70
2018-05-13T12:28:59.514Z,10.60
2018-05-13T12:30:00.043Z,12.30
2018-05-13T12:31:00.565Z,12.00
2018-05-13T12:31:59.702Z,12.60
2018-05-13T12:32:59.896Z,11.20
2018-05-13T12:33:59.031Z,10.90
2018-05-13T12:35:20.574Z,12.30
2018-05-13T12:36:20.991Z,11.80
2018-05-13T12:37:21.004Z,11.00
2018-05-13T12:38:21.853Z,11.30
2018-05-13T12:39:21.315Z,12.40
2018-05-13T12:40:41.504Z,15.00
2018-05-13T12:41:41.921Z,12.80
2018-05-13T12:42:42.402Z,13.70
2018-05-13T12:43:41.668Z,11.90
2018-05-13T12:44:41.750Z,11.10
2018-05-13T12:45:41.614Z,11.90
2018-05-13T12:46:41.932Z,12.70
2018-05-13T12:47:42.438Z,26.00
2018-05-13T12:48:41.886Z,27.20
2018-05-13T12:49:42.195Z,42.10
2018-05-13T12:50:42.509Z,45.10
2018-05-13T12:51:42.690Z,28.90
2018-05-13T12:53:03.899Z,32.30
2018-05-13T12:54:03.907Z,23.90
2018-05-13T12:55:04.378Z,106.70
2018-05-13T12:56:03.541Z,35.90
2018-05-13T12:57:04.996Z,36.10
2018-05-13T12:58:03.565Z,36.70
2018-05-13T12:59:04.479Z,28.50
2018-05-13T13:00:03.819Z,47.30
2018-05-13T13:01:03.626Z,37.10
2018-05-13T13:02:03.599Z,66.00
2018-05-13T13:03:04.018Z,39.70
2018-05-13T13:04:03.205Z,140.30
2018-05-13T13:05:25.312Z,36.00
2018-05-13T13:06:25.357Z,25.60
2018-05-13T13:07:25.641Z,24.80
2018-05-13T13:08:46.369Z,21.30
2018-05-13T13:09:47.652Z,20.40
2018-05-13T13:11:08.961Z,18.50
2018-05-13T13:12:50.573Z,12.20
2018-05-13T13:14:11.450Z,11.30
2018-05-13T13:15:34.082Z,11.60
2018-05-13T13:16:35.781Z,10.80
2018-05-13T13:17:58.139Z,11.60
2018-05-13T13:18:55.122Z,10.40
2018-05-13T13:19:56.648Z,10.40
2018-05-13T13:21:17.334Z,11.70
2018-05-13T13:22:38.626Z,10.90
2018-05-13T13:24:00.830Z,9.70
2018-05-13T13:25:22.134Z,10.40
2018-05-13T13:26:22.578Z,10.70
2018-05-13T13:27:22.463Z,13.20
2018-05-13T13:28:22.555Z,11.50
2018-05-13T13:29:22.574Z,9.20
2018-05-13T13:30:22.785Z,12.50
2018-05-13T13:31:22.356Z,25.80
2018-05-13T13:32:23.175Z,19.70
2018-05-13T13:33:22.273Z,24.20
2018-05-13T13:34:22.704Z,19.10
2018-05-13T13:35:22.465Z,111.40
2018-05-13T13:36:43.626Z,81.00
2018-05-13T13:37:44.875Z,27.50